sensor_id;sensor_type;location;lat;lon;timestamp;temperature;humidity
54168;DHT22;68429;50.958;3.592;2023-07-29T00:01:16;17.40;99.90
54168;DHT22;68429;50.958;3.592;2023-07-29T00:03:41;17.40;99.90
54168;DHT22;68429;50.958;3.592;2023-07-29T00:06:07;17.20;99.90
54168;DHT22;68429;50.958;3.592;2023-07-29T00:08:33;17.10;99.90
54168;DHT22;68429;50.958;3.592;2023-07-29T00:10:58;17.10;99.90
54168;DHT22;68429;50.958;3.592;2023-07-29T00:13:24;17.00;99.90
54168;DHT22;68429;50.958;3.592;2023-07-29T00:15:54;16.90;99.90
54168;DHT22;68429;50.958;3.592;2023-07-29T00:18:21;16.90;99.90
54168;DHT22;68429;50.958;3.592;2023-07-29T00:20:47;17.00;99.90
54168;DHT22;68429;50.958;3.592;2023-07-29T00:23:12;17.00;99.90
54168;DHT22;68429;50.958;3.592;2023-07-29T00:25:38;17.00;99.90
54168;DHT22;68429;50.958;3.592;2023-07-29T00:28:04;17.10;99.90
54168;DHT22;68429;50.958;3.592;2023-07-29T00:30:30;17.10;99.90
54168;DHT22;68429;50.958;3.592;2023-07-29T00:32:55;17.00;99.90
54168;DHT22;68429;50.958;3.592;2023-07-29T00:35:21;17.00;99.90
54168;DHT22;68429;50.958;3.592;2023-07-29T00:37:47;17.00;99.90
54168;DHT22;68429;50.958;3.592;2023-07-29T00:40:20;16.90;99.90
54168;DHT22;68429;50.958;3.592;2023-07-29T00:42:46;16.80;99.90
54168;DHT22;68429;50.958;3.592;2023-07-29T00:45:12;16.80;99.90
54168;DHT22;68429;50.958;3.592;2023-07-29T00:47:39;16.80;99.90
54168;DHT22;68429;50.958;3.592;2023-07-29T00:50:06;16.80;99.90
54168;DHT22;68429;50.958;3.592;2023-07-29T00:52:32;16.80;99.90
54168;DHT22;68429;50.958;3.592;2023-07-29T00:54:58;16.90;99.90
54168;DHT22;68429;50.958;3.592;2023-07-29T00:57:24;16.90;99.90
54168;DHT22;68429;50.958;3.592;2023-07-29T00:59:51;16.90;99.90
54168;DHT22;68429;50.958;3.592;2023-07-29T01:02:17;16.90;99.90
54168;DHT22;68429;50.958;3.592;2023-07-29T01:04:42;16.90;99.90
54168;DHT22;68429;50.958;3.592;2023-07-29T01:10:06;16.90;99.90
54168;DHT22;68429;50.958;3.592;2023-07-29T01:12:47;16.90;99.90
54168;DHT22;68429;50.958;3.592;2023-07-29T01:17:44;16.90;99.90
54168;DHT22;68429;50.958;3.592;2023-07-29T01:20:13;16.80;99.90
54168;DHT22;68429;50.958;3.592;2023-07-29T01:22:39;16.70;99.90
54168;DHT22;68429;50.958;3.592;2023-07-29T01:25:05;16.60;99.90
54168;DHT22;68429;50.958;3.592;2023-07-29T01:27:31;16.50;99.90
54168;DHT22;68429;50.958;3.592;2023-07-29T01:29:58;16.50;99.90
54168;DHT22;68429;50.958;3.592;2023-07-29T01:32:55;16.40;99.90
54168;DHT22;68429;50.958;3.592;2023-07-29T01:35:40;16.40;99.90
54168;DHT22;68429;50.958;3.592;2023-07-29T01:38:18;16.30;99.90
54168;DHT22;68429;50.958;3.592;2023-07-29T01:40:47;16.40;99.90
54168;DHT22;68429;50.958;3.592;2023-07-29T01:43:13;16.40;99.90
54168;DHT22;68429;50.958;3.592;2023-07-29T01:45:40;16.30;99.90
54168;DHT22;68429;50.958;3.592;2023-07-29T01:48:06;16.40;99.90
54168;DHT22;68429;50.958;3.592;2023-07-29T01:50:33;16.40;99.90
54168;DHT22;68429;50.958;3.592;2023-07-29T01:52:59;16.40;99.90
54168;DHT22;68429;50.958;3.592;2023-07-29T01:55:24;16.40;99.90
54168;DHT22;68429;50.958;3.592;2023-07-29T01:57:50;16.30;99.90
54168;DHT22;68429;50.958;3.592;2023-07-29T02:00:20;16.40;99.90
54168;DHT22;68429;50.958;3.592;2023-07-29T02:02:46;16.40;99.90
54168;DHT22;68429;50.958;3.592;2023-07-29T02:05:12;16.50;99.90
54168;DHT22;68429;50.958;3.592;2023-07-29T02:07:37;16.40;99.90
54168;DHT22;68429;50.958;3.592;2023-07-29T02:10:03;16.40;99.90
54168;DHT22;68429;50.958;3.592;2023-07-29T02:12:29;16.30;99.90
54168;DHT22;68429;50.958;3.592;2023-07-29T02:14:55;16.40;99.90
54168;DHT22;68429;50.958;3.592;2023-07-29T02:17:20;16.30;99.90
54168;DHT22;68429;50.958;3.592;2023-07-29T02:19:46;16.40;99.90
54168;DHT22;68429;50.958;3.592;2023-07-29T02:22:15;16.40;99.90
54168;DHT22;68429;50.958;3.592;2023-07-29T02:24:41;16.40;99.90
54168;DHT22;68429;50.958;3.592;2023-07-29T02:27:07;16.40;99.90
54168;DHT22;68429;50.958;3.592;2023-07-29T02:29:32;16.40;99.90
54168;DHT22;68429;50.958;3.592;2023-07-29T02:31:59;16.30;99.90
54168;DHT22;68429;50.958;3.592;2023-07-29T02:34:25;16.30;99.90
54168;DHT22;68429;50.958;3.592;2023-07-29T02:36:50;16.30;99.90
54168;DHT22;68429;50.958;3.592;2023-07-29T02:39:16;16.40;99.90
54168;DHT22;68429;50.958;3.592;2023-07-29T02:41:42;16.40;99.90
54168;DHT22;68429;50.958;3.592;2023-07-29T02:44:07;16.40;99.90
54168;DHT22;68429;50.958;3.592;2023-07-29T02:46:33;16.40;99.90
54168;DHT22;68429;50.958;3.592;2023-07-29T02:48:59;16.40;99.90
54168;DHT22;68429;50.958;3.592;2023-07-29T02:51:24;16.30;99.90
54168;DHT22;68429;50.958;3.592;2023-07-29T02:53:50;16.30;99.90
54168;DHT22;68429;50.958;3.592;2023-07-29T02:56:16;16.30;99.90
54168;DHT22;68429;50.958;3.592;2023-07-29T02:58:41;16.30;99.90
54168;DHT22;68429;50.958;3.592;2023-07-29T03:01:07;16.30;99.90
54168;DHT22;68429;50.958;3.592;2023-07-29T03:03:33;16.20;99.90
54168;DHT22;68429;50.958;3.592;2023-07-29T03:06:00;16.20;99.90
54168;DHT22;68429;50.958;3.592;2023-07-29T03:08:26;16.20;99.90
54168;DHT22;68429;50.958;3.592;2023-07-29T03:10:52;16.20;99.90
54168;DHT22;68429;50.958;3.592;2023-07-29T03:13:18;16.10;99.90
54168;DHT22;68429;50.958;3.592;2023-07-29T03:15:43;16.10;99.90
54168;DHT22;68429;50.958;3.592;2023-07-29T03:18:09;16.10;99.90
54168;DHT22;68429;50.958;3.592;2023-07-29T03:20:35;16.10;99.90
54168;DHT22;68429;50.958;3.592;2023-07-29T03:23:01;16.10;99.90
54168;DHT22;68429;50.958;3.592;2023-07-29T03:25:26;16.20;99.90
54168;DHT22;68429;50.958;3.592;2023-07-29T03:27:52;16.10;99.90
54168;DHT22;68429;50.958;3.592;2023-07-29T03:30:21;16.10;99.90
54168;DHT22;68429;50.958;3.592;2023-07-29T03:32:49;16.20;99.90
54168;DHT22;68429;50.958;3.592;2023-07-29T03:35:15;16.20;99.90
54168;DHT22;68429;50.958;3.592;2023-07-29T03:37:41;16.10;99.90
54168;DHT22;68429;50.958;3.592;2023-07-29T03:40:07;16.10;99.90
54168;DHT22;68429;50.958;3.592;2023-07-29T03:42:35;16.10;99.90
54168;DHT22;68429;50.958;3.592;2023-07-29T03:45:00;16.10;99.90
54168;DHT22;68429;50.958;3.592;2023-07-29T03:47:27;16.10;99.90
54168;DHT22;68429;50.958;3.592;2023-07-29T03:49:53;16.10;99.90
54168;DHT22;68429;50.958;3.592;2023-07-29T03:52:18;16.00;99.90
54168;DHT22;68429;50.958;3.592;2023-07-29T03:54:44;16.00;99.90
54168;DHT22;68429;50.958;3.592;2023-07-29T03:57:10;16.10;99.90
54168;DHT22;68429;50.958;3.592;2023-07-29T03:59:36;16.20;99.90
54168;DHT22;68429;50.958;3.592;2023-07-29T04:02:01;16.20;99.90
54168;DHT22;68429;50.958;3.592;2023-07-29T04:04:27;16.10;99.90
54168;DHT22;68429;50.958;3.592;2023-07-29T04:06:53;16.10;99.90
54168;DHT22;68429;50.958;3.592;2023-07-29T04:09:18;16.10;99.90
54168;DHT22;68429;50.958;3.592;2023-07-29T04:11:44;16.00;99.90
54168;DHT22;68429;50.958;3.592;2023-07-29T04:14:10;16.00;99.90
54168;DHT22;68429;50.958;3.592;2023-07-29T04:16:35;16.00;99.90
54168;DHT22;68429;50.958;3.592;2023-07-29T04:19:01;16.00;99.90
54168;DHT22;68429;50.958;3.592;2023-07-29T04:21:26;16.00;99.90
54168;DHT22;68429;50.958;3.592;2023-07-29T04:23:52;16.10;99.90
54168;DHT22;68429;50.958;3.592;2023-07-29T04:26:18;16.10;99.90
54168;DHT22;68429;50.958;3.592;2023-07-29T04:28:43;16.00;99.90
54168;DHT22;68429;50.958;3.592;2023-07-29T04:31:09;16.00;99.90
54168;DHT22;68429;50.958;3.592;2023-07-29T04:33:35;16.00;99.90
54168;DHT22;68429;50.958;3.592;2023-07-29T04:36:00;16.00;99.90
54168;DHT22;68429;50.958;3.592;2023-07-29T04:38:31;16.10;99.90
54168;DHT22;68429;50.958;3.592;2023-07-29T04:41:01;16.10;99.90
54168;DHT22;68429;50.958;3.592;2023-07-29T04:43:28;16.10;99.90
54168;DHT22;68429;50.958;3.592;2023-07-29T04:45:54;16.10;99.90
54168;DHT22;68429;50.958;3.592;2023-07-29T04:48:20;16.20;99.90
54168;DHT22;68429;50.958;3.592;2023-07-29T04:50:45;16.10;99.90
54168;DHT22;68429;50.958;3.592;2023-07-29T04:53:11;16.20;99.90
54168;DHT22;68429;50.958;3.592;2023-07-29T04:55:37;16.10;99.90
54168;DHT22;68429;50.958;3.592;2023-07-29T04:58:02;16.10;99.90
54168;DHT22;68429;50.958;3.592;2023-07-29T05:00:28;16.10;99.90
54168;DHT22;68429;50.958;3.592;2023-07-29T05:02:54;16.10;99.90
54168;DHT22;68429;50.958;3.592;2023-07-29T05:05:19;16.20;99.90
54168;DHT22;68429;50.958;3.592;2023-07-29T05:07:45;16.20;99.90
54168;DHT22;68429;50.958;3.592;2023-07-29T05:10:10;16.30;99.90
54168;DHT22;68429;50.958;3.592;2023-07-29T05:12:36;16.40;99.90
54168;DHT22;68429;50.958;3.592;2023-07-29T05:15:02;16.60;99.90
54168;DHT22;68429;50.958;3.592;2023-07-29T05:17:28;16.70;99.90
54168;DHT22;68429;50.958;3.592;2023-07-29T05:19:54;16.80;99.90
54168;DHT22;68429;50.958;3.592;2023-07-29T05:22:19;16.80;99.90
54168;DHT22;68429;50.958;3.592;2023-07-29T05:24:45;16.90;99.90
54168;DHT22;68429;50.958;3.592;2023-07-29T05:27:11;17.00;99.90
54168;DHT22;68429;50.958;3.592;2023-07-29T05:29:37;17.00;99.90
54168;DHT22;68429;50.958;3.592;2023-07-29T05:32:02;17.00;99.90
54168;DHT22;68429;50.958;3.592;2023-07-29T05:34:28;17.10;99.90
54168;DHT22;68429;50.958;3.592;2023-07-29T05:36:54;17.00;99.90
54168;DHT22;68429;50.958;3.592;2023-07-29T05:39:19;17.10;99.90
54168;DHT22;68429;50.958;3.592;2023-07-29T05:41:45;17.30;99.90
54168;DHT22;68429;50.958;3.592;2023-07-29T05:44:11;17.40;99.90
54168;DHT22;68429;50.958;3.592;2023-07-29T05:46:37;17.40;99.90
54168;DHT22;68429;50.958;3.592;2023-07-29T05:49:03;17.50;99.90
54168;DHT22;68429;50.958;3.592;2023-07-29T05:51:29;17.50;99.90
54168;DHT22;68429;50.958;3.592;2023-07-29T05:53:54;17.80;99.90
54168;DHT22;68429;50.958;3.592;2023-07-29T05:56:20;18.10;99.90
54168;DHT22;68429;50.958;3.592;2023-07-29T05:58:46;17.90;99.90
54168;DHT22;68429;50.958;3.592;2023-07-29T06:01:11;18.00;99.90
54168;DHT22;68429;50.958;3.592;2023-07-29T06:03:37;17.90;99.90
54168;DHT22;68429;50.958;3.592;2023-07-29T06:06:03;17.90;99.90
54168;DHT22;68429;50.958;3.592;2023-07-29T06:08:28;18.10;99.90
54168;DHT22;68429;50.958;3.592;2023-07-29T06:10:54;18.20;99.90
54168;DHT22;68429;50.958;3.592;2023-07-29T06:13:20;18.20;99.90
54168;DHT22;68429;50.958;3.592;2023-07-29T06:15:46;18.30;99.90
54168;DHT22;68429;50.958;3.592;2023-07-29T06:18:11;18.30;99.90
54168;DHT22;68429;50.958;3.592;2023-07-29T06:20:37;18.30;99.90
54168;DHT22;68429;50.958;3.592;2023-07-29T06:23:04;18.20;99.90
54168;DHT22;68429;50.958;3.592;2023-07-29T06:25:29;18.20;99.90
54168;DHT22;68429;50.958;3.592;2023-07-29T06:27:55;18.30;99.90
54168;DHT22;68429;50.958;3.592;2023-07-29T06:30:21;18.20;99.90
54168;DHT22;68429;50.958;3.592;2023-07-29T06:32:46;18.20;99.90
54168;DHT22;68429;50.958;3.592;2023-07-29T06:35:12;18.00;99.90
54168;DHT22;68429;50.958;3.592;2023-07-29T06:37:38;18.00;99.90
54168;DHT22;68429;50.958;3.592;2023-07-29T06:40:04;17.90;99.90
54168;DHT22;68429;50.958;3.592;2023-07-29T06:42:30;18.10;99.90
54168;DHT22;68429;50.958;3.592;2023-07-29T06:44:55;18.00;99.90
54168;DHT22;68429;50.958;3.592;2023-07-29T06:47:21;18.20;99.90
54168;DHT22;68429;50.958;3.592;2023-07-29T06:49:46;18.30;99.90
54168;DHT22;68429;50.958;3.592;2023-07-29T06:52:12;18.40;99.90
54168;DHT22;68429;50.958;3.592;2023-07-29T06:54:38;18.50;99.90
54168;DHT22;68429;50.958;3.592;2023-07-29T06:57:04;18.50;99.90
54168;DHT22;68429;50.958;3.592;2023-07-29T06:59:30;18.40;99.90
54168;DHT22;68429;50.958;3.592;2023-07-29T07:01:55;18.50;99.90
54168;DHT22;68429;50.958;3.592;2023-07-29T07:04:21;18.50;99.90
54168;DHT22;68429;50.958;3.592;2023-07-29T07:06:47;18.60;99.90
54168;DHT22;68429;50.958;3.592;2023-07-29T07:09:12;18.70;99.90
54168;DHT22;68429;50.958;3.592;2023-07-29T07:11:38;18.90;99.90
54168;DHT22;68429;50.958;3.592;2023-07-29T07:14:03;19.20;99.90
54168;DHT22;68429;50.958;3.592;2023-07-29T07:16:29;19.10;99.90
54168;DHT22;68429;50.958;3.592;2023-07-29T07:18:57;19.10;99.90
54168;DHT22;68429;50.958;3.592;2023-07-29T07:21:22;19.20;99.90
54168;DHT22;68429;50.958;3.592;2023-07-29T07:23:50;19.30;99.90
54168;DHT22;68429;50.958;3.592;2023-07-29T07:26:15;19.30;99.90
54168;DHT22;68429;50.958;3.592;2023-07-29T07:28:42;19.40;99.90
54168;DHT22;68429;50.958;3.592;2023-07-29T07:31:08;19.30;99.90
54168;DHT22;68429;50.958;3.592;2023-07-29T07:33:34;19.40;99.90
54168;DHT22;68429;50.958;3.592;2023-07-29T07:36:00;19.40;99.90
54168;DHT22;68429;50.958;3.592;2023-07-29T07:38:25;19.50;99.90
54168;DHT22;68429;50.958;3.592;2023-07-29T07:40:55;19.70;99.90
54168;DHT22;68429;50.958;3.592;2023-07-29T07:43:21;19.90;99.90
54168;DHT22;68429;50.958;3.592;2023-07-29T07:45:47;19.80;99.90
54168;DHT22;68429;50.958;3.592;2023-07-29T07:48:13;19.80;99.90
54168;DHT22;68429;50.958;3.592;2023-07-29T07:50:39;20.00;99.90
54168;DHT22;68429;50.958;3.592;2023-07-29T07:53:05;20.10;99.90
54168;DHT22;68429;50.958;3.592;2023-07-29T07:55:30;20.10;99.90
54168;DHT22;68429;50.958;3.592;2023-07-29T07:57:56;20.00;99.90
54168;DHT22;68429;50.958;3.592;2023-07-29T08:00:22;20.00;99.90
54168;DHT22;68429;50.958;3.592;2023-07-29T08:02:47;20.10;99.90
54168;DHT22;68429;50.958;3.592;2023-07-29T08:05:13;20.10;99.90
54168;DHT22;68429;50.958;3.592;2023-07-29T08:07:39;20.10;99.90
54168;DHT22;68429;50.958;3.592;2023-07-29T08:10:05;20.20;99.90
54168;DHT22;68429;50.958;3.592;2023-07-29T08:12:32;20.40;99.90
54168;DHT22;68429;50.958;3.592;2023-07-29T08:14:58;20.70;99.90
54168;DHT22;68429;50.958;3.592;2023-07-29T08:17:23;20.90;99.90
54168;DHT22;68429;50.958;3.592;2023-07-29T08:19:49;21.00;99.90
54168;DHT22;68429;50.958;3.592;2023-07-29T08:22:15;21.00;99.90
54168;DHT22;68429;50.958;3.592;2023-07-29T08:24:42;21.50;99.90
54168;DHT22;68429;50.958;3.592;2023-07-29T08:27:08;21.60;99.90
54168;DHT22;68429;50.958;3.592;2023-07-29T08:29:34;21.80;99.90
54168;DHT22;68429;50.958;3.592;2023-07-29T08:31:59;22.10;99.90
54168;DHT22;68429;50.958;3.592;2023-07-29T08:34:25;21.90;99.90
54168;DHT22;68429;50.958;3.592;2023-07-29T08:36:51;21.70;99.90
54168;DHT22;68429;50.958;3.592;2023-07-29T08:39:16;21.60;99.90
54168;DHT22;68429;50.958;3.592;2023-07-29T08:44:26;21.30;99.90
54168;DHT22;68429;50.958;3.592;2023-07-29T08:46:56;21.10;99.90
54168;DHT22;68429;50.958;3.592;2023-07-29T08:49:23;20.90;99.90
54168;DHT22;68429;50.958;3.592;2023-07-29T08:51:49;21.10;99.90
54168;DHT22;68429;50.958;3.592;2023-07-29T08:54:16;21.10;99.90
54168;DHT22;68429;50.958;3.592;2023-07-29T08:56:42;21.10;99.90
54168;DHT22;68429;50.958;3.592;2023-07-29T08:59:09;21.00;99.90
54168;DHT22;68429;50.958;3.592;2023-07-29T09:01:36;20.90;99.90
54168;DHT22;68429;50.958;3.592;2023-07-29T09:04:02;20.90;99.90
54168;DHT22;68429;50.958;3.592;2023-07-29T09:06:28;20.90;99.90
54168;DHT22;68429;50.958;3.592;2023-07-29T09:08:54;20.90;99.90
54168;DHT22;68429;50.958;3.592;2023-07-29T09:11:22;20.90;99.90
54168;DHT22;68429;50.958;3.592;2023-07-29T09:13:48;20.90;99.90
54168;DHT22;68429;50.958;3.592;2023-07-29T09:16:14;21.00;99.90
54168;DHT22;68429;50.958;3.592;2023-07-29T09:18:40;21.00;99.90
54168;DHT22;68429;50.958;3.592;2023-07-29T09:21:06;21.00;99.90
54168;DHT22;68429;50.958;3.592;2023-07-29T09:23:42;21.00;99.90
54168;DHT22;68429;50.958;3.592;2023-07-29T09:26:08;21.00;99.90
54168;DHT22;68429;50.958;3.592;2023-07-29T09:28:35;20.70;99.90
54168;DHT22;68429;50.958;3.592;2023-07-29T09:31:01;20.50;99.90
54168;DHT22;68429;50.958;3.592;2023-07-29T09:33:27;20.30;99.90
54168;DHT22;68429;50.958;3.592;2023-07-29T09:35:53;20.30;99.90
54168;DHT22;68429;50.958;3.592;2023-07-29T09:38:29;20.40;99.90
54168;DHT22;68429;50.958;3.592;2023-07-29T09:40:56;20.40;99.90
54168;DHT22;68429;50.958;3.592;2023-07-29T09:43:29;20.50;99.90
54168;DHT22;68429;50.958;3.592;2023-07-29T09:45:54;20.70;99.90
54168;DHT22;68429;50.958;3.592;2023-07-29T09:48:23;20.90;99.90
54168;DHT22;68429;50.958;3.592;2023-07-29T09:50:49;20.90;99.90
54168;DHT22;68429;50.958;3.592;2023-07-29T09:53:15;20.80;99.90
54168;DHT22;68429;50.958;3.592;2023-07-29T09:55:46;20.60;99.90
54168;DHT22;68429;50.958;3.592;2023-07-29T09:58:14;20.50;99.90
54168;DHT22;68429;50.958;3.592;2023-07-29T10:00:40;20.30;99.90
54168;DHT22;68429;50.958;3.592;2023-07-29T10:03:06;20.30;99.90
54168;DHT22;68429;50.958;3.592;2023-07-29T10:05:33;20.40;99.90
54168;DHT22;68429;50.958;3.592;2023-07-29T10:08:01;20.40;99.90
54168;DHT22;68429;50.958;3.592;2023-07-29T10:10:28;20.20;99.90
54168;DHT22;68429;50.958;3.592;2023-07-29T10:12:55;19.90;99.90
54168;DHT22;68429;50.958;3.592;2023-07-29T10:15:22;19.30;99.90
54168;DHT22;68429;50.958;3.592;2023-07-29T10:17:48;19.00;99.90
54168;DHT22;68429;50.958;3.592;2023-07-29T10:20:15;18.90;99.90
54168;DHT22;68429;50.958;3.592;2023-07-29T10:22:43;19.00;99.90
54168;DHT22;68429;50.958;3.592;2023-07-29T10:25:13;19.00;99.90
54168;DHT22;68429;50.958;3.592;2023-07-29T10:27:47;19.00;99.90
54168;DHT22;68429;50.958;3.592;2023-07-29T10:30:13;19.10;99.90
54168;DHT22;68429;50.958;3.592;2023-07-29T10:32:42;19.10;99.90
54168;DHT22;68429;50.958;3.592;2023-07-29T10:35:10;19.00;99.90
54168;DHT22;68429;50.958;3.592;2023-07-29T10:37:36;18.90;99.90
54168;DHT22;68429;50.958;3.592;2023-07-29T10:40:06;18.80;99.90
54168;DHT22;68429;50.958;3.592;2023-07-29T10:42:32;18.70;99.90
54168;DHT22;68429;50.958;3.592;2023-07-29T10:44:58;18.70;99.90
54168;DHT22;68429;50.958;3.592;2023-07-29T10:47:25;18.60;99.90
54168;DHT22;68429;50.958;3.592;2023-07-29T10:49:57;18.70;99.90
54168;DHT22;68429;50.958;3.592;2023-07-29T10:55:02;18.70;99.90
54168;DHT22;68429;50.958;3.592;2023-07-29T10:57:39;18.90;99.90
54168;DHT22;68429;50.958;3.592;2023-07-29T11:00:07;19.00;99.90
54168;DHT22;68429;50.958;3.592;2023-07-29T11:02:37;18.80;99.90
54168;DHT22;68429;50.958;3.592;2023-07-29T11:05:17;18.90;99.90
54168;DHT22;68429;50.958;3.592;2023-07-29T11:07:47;18.90;99.90
54168;DHT22;68429;50.958;3.592;2023-07-29T11:10:15;18.90;99.90
54168;DHT22;68429;50.958;3.592;2023-07-29T11:12:50;18.60;99.90
54168;DHT22;68429;50.958;3.592;2023-07-29T11:15:21;18.50;99.90
54168;DHT22;68429;50.958;3.592;2023-07-29T11:17:55;18.90;99.90
54168;DHT22;68429;50.958;3.592;2023-07-29T11:20:26;19.50;99.90
54168;DHT22;68429;50.958;3.592;2023-07-29T11:22:54;19.90;99.90
54168;DHT22;68429;50.958;3.592;2023-07-29T11:25:21;20.30;99.90
54168;DHT22;68429;50.958;3.592;2023-07-29T11:27:48;20.70;99.90
54168;DHT22;68429;50.958;3.592;2023-07-29T11:30:15;21.40;99.90
54168;DHT22;68429;50.958;3.592;2023-07-29T11:32:42;22.40;99.90
54168;DHT22;68429;50.958;3.592;2023-07-29T11:35:10;23.10;99.90
54168;DHT22;68429;50.958;3.592;2023-07-29T11:37:38;22.90;99.90
54168;DHT22;68429;50.958;3.592;2023-07-29T11:40:04;23.60;99.90
54168;DHT22;68429;50.958;3.592;2023-07-29T11:42:32;24.40;99.90
54168;DHT22;68429;50.958;3.592;2023-07-29T11:44:59;24.80;99.90
54168;DHT22;68429;50.958;3.592;2023-07-29T11:47:25;26.10;99.90
54168;DHT22;68429;50.958;3.592;2023-07-29T11:49:51;25.80;99.90
54168;DHT22;68429;50.958;3.592;2023-07-29T11:52:18;24.80;99.90
54168;DHT22;68429;50.958;3.592;2023-07-29T11:54:47;24.80;99.90
54168;DHT22;68429;50.958;3.592;2023-07-29T11:57:13;23.90;99.90
54168;DHT22;68429;50.958;3.592;2023-07-29T11:59:41;24.80;99.90
54168;DHT22;68429;50.958;3.592;2023-07-29T12:02:15;25.50;99.90
54168;DHT22;68429;50.958;3.592;2023-07-29T12:04:41;26.20;99.90
54168;DHT22;68429;50.958;3.592;2023-07-29T12:07:08;25.10;99.90
54168;DHT22;68429;50.958;3.592;2023-07-29T12:09:35;24.40;99.90
54168;DHT22;68429;50.958;3.592;2023-07-29T12:12:04;24.50;99.90
54168;DHT22;68429;50.958;3.592;2023-07-29T12:14:31;24.60;99.90
54168;DHT22;68429;50.958;3.592;2023-07-29T12:17:03;24.60;99.90
54168;DHT22;68429;50.958;3.592;2023-07-29T12:19:36;25.00;99.90
54168;DHT22;68429;50.958;3.592;2023-07-29T12:22:04;24.80;99.90
54168;DHT22;68429;50.958;3.592;2023-07-29T12:24:33;24.40;99.90
54168;DHT22;68429;50.958;3.592;2023-07-29T12:27:00;24.20;99.90
54168;DHT22;68429;50.958;3.592;2023-07-29T12:29:27;24.00;99.90
54168;DHT22;68429;50.958;3.592;2023-07-29T12:32:00;24.20;99.90
54168;DHT22;68429;50.958;3.592;2023-07-29T12:34:27;24.60;99.90
54168;DHT22;68429;50.958;3.592;2023-07-29T12:36:54;24.60;99.90
54168;DHT22;68429;50.958;3.592;2023-07-29T12:41:51;26.20;99.90
54168;DHT22;68429;50.958;3.592;2023-07-29T12:44:17;25.80;99.90
54168;DHT22;68429;50.958;3.592;2023-07-29T12:46:43;25.00;99.90
54168;DHT22;68429;50.958;3.592;2023-07-29T12:49:09;24.90;99.90
54168;DHT22;68429;50.958;3.592;2023-07-29T12:51:35;24.70;99.90
54168;DHT22;68429;50.958;3.592;2023-07-29T12:54:02;25.30;99.90
54168;DHT22;68429;50.958;3.592;2023-07-29T12:56:28;26.30;99.90
54168;DHT22;68429;50.958;3.592;2023-07-29T12:58:56;27.30;99.90
54168;DHT22;68429;50.958;3.592;2023-07-29T13:01:22;27.80;99.90
54168;DHT22;68429;50.958;3.592;2023-07-29T13:03:48;28.40;99.90
54168;DHT22;68429;50.958;3.592;2023-07-29T13:06:14;27.60;99.50
54168;DHT22;68429;50.958;3.592;2023-07-29T13:08:41;26.40;99.90
54168;DHT22;68429;50.958;3.592;2023-07-29T13:11:07;25.90;99.90
54168;DHT22;68429;50.958;3.592;2023-07-29T13:13:32;24.90;99.90
54168;DHT22;68429;50.958;3.592;2023-07-29T13:15:58;23.40;99.90
54168;DHT22;68429;50.958;3.592;2023-07-29T13:18:24;22.90;99.90
54168;DHT22;68429;50.958;3.592;2023-07-29T13:20:50;22.90;99.90
54168;DHT22;68429;50.958;3.592;2023-07-29T13:23:16;22.40;99.90
54168;DHT22;68429;50.958;3.592;2023-07-29T13:25:42;22.20;99.90
54168;DHT22;68429;50.958;3.592;2023-07-29T13:28:11;21.80;99.90
54168;DHT22;68429;50.958;3.592;2023-07-29T13:30:39;21.40;99.90
54168;DHT22;68429;50.958;3.592;2023-07-29T13:33:05;21.10;99.90
54168;DHT22;68429;50.958;3.592;2023-07-29T13:35:30;20.70;99.90
54168;DHT22;68429;50.958;3.592;2023-07-29T13:37:56;20.40;99.90
54168;DHT22;68429;50.958;3.592;2023-07-29T13:40:22;20.00;99.90
54168;DHT22;68429;50.958;3.592;2023-07-29T13:42:47;19.80;99.90
54168;DHT22;68429;50.958;3.592;2023-07-29T13:45:13;20.00;99.90
54168;DHT22;68429;50.958;3.592;2023-07-29T13:47:39;20.40;99.90
54168;DHT22;68429;50.958;3.592;2023-07-29T13:50:05;20.20;99.90
54168;DHT22;68429;50.958;3.592;2023-07-29T13:52:33;20.70;99.90
54168;DHT22;68429;50.958;3.592;2023-07-29T13:54:58;21.20;99.90
54168;DHT22;68429;50.958;3.592;2023-07-29T13:57:24;21.90;99.90
54168;DHT22;68429;50.958;3.592;2023-07-29T13:59:50;22.30;99.90
54168;DHT22;68429;50.958;3.592;2023-07-29T14:02:15;23.10;99.90
54168;DHT22;68429;50.958;3.592;2023-07-29T14:04:41;23.70;99.90
54168;DHT22;68429;50.958;3.592;2023-07-29T14:07:07;23.90;99.90
54168;DHT22;68429;50.958;3.592;2023-07-29T14:09:32;24.30;99.90
54168;DHT22;68429;50.958;3.592;2023-07-29T14:11:58;24.40;99.90
54168;DHT22;68429;50.958;3.592;2023-07-29T14:14:24;24.10;99.90
54168;DHT22;68429;50.958;3.592;2023-07-29T14:16:49;23.60;99.90
54168;DHT22;68429;50.958;3.592;2023-07-29T14:19:15;23.10;99.90
54168;DHT22;68429;50.958;3.592;2023-07-29T14:21:40;22.90;99.90
54168;DHT22;68429;50.958;3.592;2023-07-29T14:24:06;22.70;99.90
54168;DHT22;68429;50.958;3.592;2023-07-29T14:26:32;22.30;99.90
54168;DHT22;68429;50.958;3.592;2023-07-29T14:28:58;22.30;99.90
54168;DHT22;68429;50.958;3.592;2023-07-29T14:31:24;22.40;99.90
54168;DHT22;68429;50.958;3.592;2023-07-29T14:33:49;22.10;99.90
54168;DHT22;68429;50.958;3.592;2023-07-29T14:36:16;22.00;99.90
54168;DHT22;68429;50.958;3.592;2023-07-29T14:38:41;21.90;99.90
54168;DHT22;68429;50.958;3.592;2023-07-29T14:41:08;22.10;99.90
54168;DHT22;68429;50.958;3.592;2023-07-29T14:43:34;22.30;99.90
54168;DHT22;68429;50.958;3.592;2023-07-29T14:45:59;22.80;99.90
54168;DHT22;68429;50.958;3.592;2023-07-29T14:48:25;23.10;99.90
54168;DHT22;68429;50.958;3.592;2023-07-29T14:50:51;23.70;99.90
54168;DHT22;68429;50.958;3.592;2023-07-29T14:53:16;23.90;99.90
54168;DHT22;68429;50.958;3.592;2023-07-29T14:55:42;23.50;99.90
54168;DHT22;68429;50.958;3.592;2023-07-29T14:58:08;23.20;99.90
54168;DHT22;68429;50.958;3.592;2023-07-29T15:00:33;22.70;99.90
54168;DHT22;68429;50.958;3.592;2023-07-29T15:02:59;22.70;99.90
54168;DHT22;68429;50.958;3.592;2023-07-29T15:05:25;22.50;99.90
54168;DHT22;68429;50.958;3.592;2023-07-29T15:07:51;23.10;99.90
54168;DHT22;68429;50.958;3.592;2023-07-29T15:10:18;23.30;99.90
54168;DHT22;68429;50.958;3.592;2023-07-29T15:12:44;23.40;99.90
54168;DHT22;68429;50.958;3.592;2023-07-29T15:15:11;24.00;99.90
54168;DHT22;68429;50.958;3.592;2023-07-29T15:17:37;24.10;99.90
54168;DHT22;68429;50.958;3.592;2023-07-29T15:20:03;24.10;99.90
54168;DHT22;68429;50.958;3.592;2023-07-29T15:22:32;24.30;99.90
54168;DHT22;68429;50.958;3.592;2023-07-29T15:24:58;24.30;99.90
54168;DHT22;68429;50.958;3.592;2023-07-29T15:27:26;23.90;99.90
54168;DHT22;68429;50.958;3.592;2023-07-29T15:29:52;23.70;99.90
54168;DHT22;68429;50.958;3.592;2023-07-29T15:32:17;23.40;99.90
54168;DHT22;68429;50.958;3.592;2023-07-29T15:34:43;23.70;99.10
54168;DHT22;68429;50.958;3.592;2023-07-29T15:37:09;24.00;99.40
54168;DHT22;68429;50.958;3.592;2023-07-29T15:39:34;24.10;99.90